AirNav   ProFlight Series 2 Aviation Headset
 
 506 users online  

07AL Tac X Stagefield Army Heliport
Fort Rucker/Samson, Alabama, USA

GOING TO FORT RUCKER/SAMSON?


FAA INFORMATION EFFECTIVE 18 JUNE 2020

Location

FAA Identifier: 07AL
Lat/Long: 31-07-15.6500N 085-58-38.0700W
31-07.260833N 085-58.634500W
31.1210139,-85.9772417
(estimated)
Elevation: 132 ft. / 40 m (estimated)
Variation: 02W (2000)
From city: 4 miles NE of central business district of the associated city
Time zone: UTC -5 (UTC -6 during Standard Time)
Zip code: 36318

Heliport Operations

Heliport use: Private use. Permission required prior to landing
Activation date: 06/2002
Control tower: no
ARTCC: JACKSONVILLE CENTER
FSS: ANNISTON FLIGHT SERVICE STATION
NOTAMs facility: OZR (NOTAM-D service available)
Attendance: UNATNDD EXCP DURG TRNG
Segmented circle: no

Heliport Communications

WX AWOS-3PT at EDN (11 nm N): 118.9 (334-347-3524)

Nearby radio navigation aids

VOR radial/distance  VOR name  Freq  Var
EDNr203/(11.2)ENTERPRISE VOR116.6003W
OZRr238/15.6CAIRNS VOR/DME111.2003W
HEYr231/(22.5)HANCHEY VOR110.6003W
RRSr249/29.7WIREGRASS VORTAC111.6002E

 
NDB name  Hdg/Dist  Freq  Var  ID
RUCKR236/10.421203WOZ --- --..
BOLL WEEVIL182/13.135203WBVG -... ...- --.
LOWE223/18.826903WLOR .-.. --- .-.
HANCHEY230/22.622103WHYE .... -.-- .
JUDD119/23.926402WJUY .--- ..- -.--

Heliport Services

Runway Information

Helipad H1

Dimensions: 6000 x 1200 ft. / 1829 x 366 m
Surface: turf
Operational restrictions: HELIPAD TOTAL AREA: 169 ACRES TURF.
Traffic pattern: leftleft

Heliport Ownership and Management from official FAA records

Ownership: U.S. Army
Owner: US ARMY AVIATION CTR & FORT RUCKER
BLDG 114 NOVOSEL ST
FORT RUCKER, AL 36362
Phone 334-255-9764
Manager: JACK A HOLMES
USAACE G3 AIR
FORT RUCKER, AL 36362
Phone 334-255-9764

Additional Remarks

FOR CD CTC CAIRNS APCH AT 334-255-8402 OR 334-255-8460, WHEN APCH CLSD CTC JACKSONVILLE ARTCC AT 904-845-1592.

Instrument Procedures

There are no published instrument procedures at 07AL.

Some nearby airports with instrument procedures:

33J - Geneva Municipal Airport (7 nm SE)
KEDN - Enterprise Municipal Airport (11 nm N)
KOZR - Cairns Army Airfield (Fort Rucker) (16 nm NE)
0J4 - Florala Municipal Airport (18 nm W)
KLOR - Lowe Army Heliport (Fort Rucker) (18 nm NE)
 
Loc | Ops | Rwys | IFR | FBO | Links
Com | Nav | Svcs | Stats | Notes

Continental Services
AirBoss

 
Area around 07AL (Tac X Stagefield Army Heliport)
 
Road maps at: MapQuest Bing Google
 
Aerial photo
No photo
 
Sectional chart

 
Airport distance calculator
Flying to Tac X Stagefield Army Heliport? Find the distance to fly.

From to 07AL

Sunrise and sunset
Times for 11-Jul-2020
 Local
(UTC-5)
 Zulu
(UTC)
Morning civil twilight05:2210:22
Sunrise05:5010:50
Sunset19:4900:49
Evening civil twilight20:1701:17

Current date and time
Zulu (UTC)  11-Jul-2020 11:43:00
Local (UTC-5)  11-Jul-2020 06:43:00
 
METAR
KEDN 
11nm N 
111115Z AUTO 00000KT 5SM BR CLR 25/25 A2995 RMK AO2 T02450245
KSXS 
16nm NE 
111058Z AUTO 32004KT 9SM CLR 25/24 A2994 RMK AO2 SLP136 T02510242
KOZR 
17nm NE 
111056Z 29005KT 9SM CLR 25/24 A2994 RMK AO2A SLP137 T02480243 $
KLOR 
18nm NE 
111058Z AUTO 00000KT 5SM BR CLR 23/23 A2994 RMK AO2 SLP119 T02330225
KHEY 
21nm NE 
111058Z AUTO 30004KT 6SM BR CLR 25/24 A2993 RMK AO2 SLP134 T02480243
TAF
KOZR 
17nm NE 
110800Z 1108/1214 VRB06KT 9999 FEW035 QNH2990INS BECMG 1119/1120 33010G15KT 9999 SKC QNH2989INS BECMG 1123/1124 VRB06KT 9999 SKC QNH2988INS TX34/1121Z TN21/1109Z
NOTAMs
Click for the latest NOTAMs
NOTAMs are issued by the DoD/FAA and will open in a separate window not controlled by AirNav.

 

 
 

Would you like to see your business listed on this page?

 If your business provides an interesting product or service to pilots, flight crews, aircraft, or users of the Tac X Stagefield Army Heliport, you should consider listing it here.  To start the listing process, click on the button below
 
Add a business
 

Other Pages about Tac X Stagefield Army Heliport

Update a link
 
Copyright © AirNav, LLC. All rights reserved. Privacy Policy  Contact